createdAt,value
2018-04-17T00:00:46.243Z,1015.18
2018-04-17T00:01:46.240Z,1015.16
2018-04-17T00:02:46.238Z,1015.19
2018-04-17T00:03:46.226Z,1015.17
2018-04-17T00:04:46.219Z,1015.18
2018-04-17T00:05:46.205Z,1015.15
2018-04-17T00:06:46.200Z,1015.18
2018-04-17T00:07:46.195Z,1015.18
2018-04-17T00:08:46.187Z,1015.16
2018-04-17T00:09:46.178Z,1015.22
2018-04-17T00:10:46.171Z,1015.19
2018-04-17T00:11:46.163Z,1015.22
2018-04-17T00:12:46.153Z,1015.19
2018-04-17T00:13:46.150Z,1015.21
2018-04-17T00:14:46.142Z,1015.22
2018-04-17T00:15:46.138Z,1015.22
2018-04-17T00:16:46.127Z,1015.23
2018-04-17T00:17:46.118Z,1015.24
2018-04-17T00:18:46.109Z,1015.24
2018-04-17T00:19:46.099Z,1015.23
2018-04-17T00:20:46.096Z,1015.28
2018-04-17T00:21:46.088Z,1015.28
2018-04-17T00:22:46.081Z,1015.31
2018-04-17T00:23:46.073Z,1015.28
2018-04-17T00:24:46.064Z,1015.29
2018-04-17T00:25:46.058Z,1015.26
2018-04-17T00:26:46.051Z,1015.32
2018-04-17T00:27:46.038Z,1015.32
2018-04-17T00:28:46.033Z,1015.34
2018-04-17T00:29:46.027Z,1015.31
2018-04-17T00:30:46.028Z,1015.29
2018-04-17T00:31:46.012Z,1015.31
2018-04-17T00:32:46.001Z,1015.28
2018-04-17T00:33:46.000Z,1015.31
2018-04-17T00:34:45.987Z,1015.30
2018-04-17T00:35:45.981Z,1015.30
2018-04-17T00:36:45.969Z,1015.33
2018-04-17T00:37:45.968Z,1015.32
2018-04-17T00:38:45.959Z,1015.31
2018-04-17T00:39:45.948Z,1015.29
2018-04-17T00:40:45.940Z,1015.32
2018-04-17T00:41:45.931Z,1015.32
2018-04-17T00:42:45.925Z,1015.32
2018-04-17T00:43:45.918Z,1015.33
2018-04-17T00:44:45.912Z,1015.30
2018-04-17T00:45:45.922Z,1015.33
2018-04-17T00:46:45.899Z,1015.34
2018-04-17T00:47:45.893Z,1015.32
2018-04-17T00:48:45.879Z,1015.33
2018-04-17T00:49:45.874Z,1015.33
2018-04-17T00:50:45.864Z,1015.37
2018-04-17T00:51:45.859Z,1015.39
2018-04-17T00:52:45.860Z,1015.37
2018-04-17T00:53:45.842Z,1015.40
2018-04-17T00:54:45.839Z,1015.39
2018-04-17T00:55:45.826Z,1015.38
2018-04-17T00:56:45.855Z,1015.39
2018-04-17T00:57:45.812Z,1015.43
2018-04-17T00:58:45.805Z,1015.41
2018-04-17T00:59:45.820Z,1015.40
2018-04-17T01:00:45.804Z,1015.48
2018-04-17T01:01:45.779Z,1015.46
2018-04-17T01:02:45.775Z,1015.47
2018-04-17T01:03:45.767Z,1015.50
2018-04-17T01:04:45.767Z,1015.53
2018-04-17T01:05:45.752Z,1015.55
2018-04-17T01:06:45.742Z,1015.56
2018-04-17T01:07:45.736Z,1015.57
2018-04-17T01:08:45.724Z,1015.58
2018-04-17T01:09:45.720Z,1015.56
2018-04-17T01:10:45.711Z,1015.58
2018-04-17T01:11:45.704Z,1015.57
2018-04-17T01:12:45.699Z,1015.59
2018-04-17T01:13:45.691Z,1015.58
2018-04-17T01:14:45.696Z,1015.57
2018-04-17T01:15:45.678Z,1015.58
2018-04-17T01:16:45.666Z,1015.63
2018-04-17T01:17:45.658Z,1015.60
2018-04-17T01:18:45.648Z,1015.59
2018-04-17T01:19:45.644Z,1015.62
2018-04-17T01:20:45.633Z,1015.58
2018-04-17T01:21:45.650Z,1015.64
2018-04-17T01:22:45.614Z,1015.67
2018-04-17T01:23:45.611Z,1015.64
2018-04-17T01:24:45.604Z,1015.71
2018-04-17T01:25:45.598Z,1015.68
2018-04-17T01:26:45.584Z,1015.68
2018-04-17T01:27:45.580Z,1015.73
2018-04-17T01:28:45.567Z,1015.71
2018-04-17T01:29:45.559Z,1015.72
2018-04-17T01:30:45.556Z,1015.74
2018-04-17T01:31:45.548Z,1015.69
2018-04-17T01:32:45.543Z,1015.72
2018-04-17T01:33:45.531Z,1015.75
2018-04-17T01:34:45.523Z,1015.72
2018-04-17T01:35:45.515Z,1015.78
2018-04-17T01:36:45.506Z,1015.80
2018-04-17T01:37:45.499Z,1015.77
2018-04-17T01:38:45.491Z,1015.83
2018-04-17T01:39:45.482Z,1015.81
2018-04-17T01:40:45.472Z,1015.80
2018-04-17T01:41:45.465Z,1015.85
2018-04-17T01:42:45.456Z,1015.81
2018-04-17T01:43:45.450Z,1015.86
2018-04-17T01:44:45.443Z,1015.86
2018-04-17T01:45:45.436Z,1015.87
2018-04-17T01:46:45.424Z,1015.88
2018-04-17T01:47:45.420Z,1015.90
2018-04-17T01:48:45.411Z,1015.87
2018-04-17T01:49:45.401Z,1015.88
2018-04-17T01:50:45.396Z,1015.88
2018-04-17T01:51:45.389Z,1015.92
2018-04-17T01:52:45.381Z,1015.89
2018-04-17T01:53:45.369Z,1015.88
2018-04-17T01:54:45.376Z,1015.87
2018-04-17T01:55:45.356Z,1015.88
2018-04-17T01:56:45.346Z,1015.86
2018-04-17T01:57:45.339Z,1015.80
2018-04-17T01:58:45.337Z,1015.86
2018-04-17T01:59:45.340Z,1015.84
2018-04-17T02:00:45.321Z,1015.82
2018-04-17T02:01:45.321Z,1015.84
2018-04-17T02:02:45.315Z,1015.80
2018-04-17T02:03:45.309Z,1015.84
2018-04-17T02:04:45.295Z,1015.82
2018-04-17T02:05:45.285Z,1015.84
2018-04-17T02:06:45.272Z,1015.86
2018-04-17T02:07:45.310Z,1015.85
2018-04-17T02:08:45.255Z,1015.86
2018-04-17T02:09:45.243Z,1015.80
2018-04-17T02:10:45.234Z,1015.79
2018-04-17T02:11:45.231Z,1015.81
2018-04-17T02:12:45.223Z,1015.77
2018-04-17T02:13:45.209Z,1015.80
2018-04-17T02:14:45.202Z,1015.77
2018-04-17T02:15:45.204Z,1015.80
2018-04-17T02:16:45.210Z,1015.80
2018-04-17T02:17:45.188Z,1015.80
2018-04-17T02:18:45.177Z,1015.86
2018-04-17T02:19:45.167Z,1015.85
2018-04-17T02:20:45.158Z,1015.90
2018-04-17T02:21:45.148Z,1015.94
2018-04-17T02:22:45.140Z,1015.92
2018-04-17T02:23:45.158Z,1015.98
2018-04-17T02:24:45.125Z,1015.98
2018-04-17T02:25:45.120Z,1015.94
2018-04-17T02:26:45.109Z,1015.99
2018-04-17T02:27:45.102Z,1015.99
2018-04-17T02:28:45.092Z,1015.96
2018-04-17T02:29:45.082Z,1015.97
2018-04-17T02:30:45.074Z,1015.97
2018-04-17T02:31:45.067Z,1016.00
2018-04-17T02:32:45.061Z,1015.99
2018-04-17T02:33:45.056Z,1016.04
2018-04-17T02:34:45.043Z,1016.03
2018-04-17T02:35:45.037Z,1016.05
2018-04-17T02:36:45.024Z,1016.03
2018-04-17T02:37:45.019Z,1016.07
2018-04-17T02:38:45.013Z,1016.10
2018-04-17T02:39:45.009Z,1016.14
2018-04-17T02:40:44.999Z,1016.12
2018-04-17T02:41:45.012Z,1016.18
2018-04-17T02:42:44.978Z,1016.18
2018-04-17T02:43:44.967Z,1016.17
2018-04-17T02:44:44.960Z,1016.16
2018-04-17T02:45:44.960Z,1016.19
2018-04-17T02:46:44.947Z,1016.21
2018-04-17T02:47:44.939Z,1016.22
2018-04-17T02:48:44.934Z,1016.25
2018-04-17T02:49:44.920Z,1016.25
2018-04-17T02:50:44.915Z,1016.23
2018-04-17T02:51:44.908Z,1016.20
2018-04-17T02:52:44.898Z,1016.26
2018-04-17T02:53:44.892Z,1016.25
2018-04-17T02:54:44.888Z,1016.23
2018-04-17T02:55:44.879Z,1016.24
2018-04-17T02:56:44.864Z,1016.28
2018-04-17T02:57:44.884Z,1016.23
2018-04-17T02:58:44.843Z,1016.23
2018-04-17T02:59:44.839Z,1016.20
2018-04-17T03:00:44.829Z,1016.24
2018-04-17T03:01:44.824Z,1016.25
2018-04-17T03:02:44.816Z,1016.22
2018-04-17T03:03:44.803Z,1016.18
2018-04-17T03:04:44.795Z,1016.20
2018-04-17T03:05:44.790Z,1016.20
2018-04-17T03:06:44.784Z,1016.20
2018-04-17T03:07:44.780Z,1016.20
2018-04-17T03:08:44.767Z,1016.17
2018-04-17T03:09:44.754Z,1016.16
2018-04-17T03:10:44.745Z,1016.13
2018-04-17T03:11:44.740Z,1016.12
2018-04-17T03:12:44.732Z,1016.12
2018-04-17T03:13:44.727Z,1016.16
2018-04-17T03:14:44.718Z,1016.13
2018-04-17T03:15:44.713Z,1016.13
2018-04-17T03:16:44.694Z,1016.13
2018-04-17T03:17:44.687Z,1016.10
2018-04-17T03:18:44.682Z,1016.14
2018-04-17T03:19:44.676Z,1016.16
2018-04-17T03:20:44.663Z,1016.12
2018-04-17T03:21:44.660Z,1016.14
2018-04-17T03:22:44.647Z,1016.16
2018-04-17T03:23:44.638Z,1016.17
2018-04-17T03:24:44.625Z,1016.22
2018-04-17T03:25:44.625Z,1016.18
2018-04-17T03:26:44.611Z,1016.23
2018-04-17T03:27:44.611Z,1016.20
2018-04-17T03:28:44.602Z,1016.19
2018-04-17T03:29:44.590Z,1016.22
2018-04-17T03:30:44.581Z,1016.23
2018-04-17T03:31:44.575Z,1016.22
2018-04-17T03:32:44.562Z,1016.24
2018-04-17T03:33:44.558Z,1016.23
2018-04-17T03:34:44.550Z,1016.22
2018-04-17T03:35:44.542Z,1016.21
2018-04-17T03:36:44.525Z,1016.23
2018-04-17T03:37:44.523Z,1016.21
2018-04-17T03:38:44.517Z,1016.21
2018-04-17T03:39:44.502Z,1016.21
2018-04-17T03:40:44.504Z,1016.23
2018-04-17T03:41:44.487Z,1016.20
2018-04-17T03:42:44.477Z,1016.20
2018-04-17T03:43:44.468Z,1016.18
2018-04-17T03:44:44.458Z,1016.24
2018-04-17T03:45:44.453Z,1016.20
2018-04-17T03:46:44.450Z,1016.24
2018-04-17T03:47:44.440Z,1016.21
2018-04-17T03:48:44.429Z,1016.22
2018-04-17T03:49:44.419Z,1016.21
2018-04-17T03:50:44.409Z,1016.22
2018-04-17T03:51:44.425Z,1016.18
2018-04-17T03:52:44.391Z,1016.19
2018-04-17T03:53:44.387Z,1016.25
2018-04-17T03:54:44.378Z,1016.21
2018-04-17T03:55:44.368Z,1016.25
2018-04-17T03:56:44.368Z,1016.25
2018-04-17T03:57:44.351Z,1016.25
2018-04-17T03:58:44.341Z,1016.26
2018-04-17T03:59:44.334Z,1016.24
2018-04-17T04:00:44.323Z,1016.23
2018-04-17T04:01:44.318Z,1016.27
2018-04-17T04:02:44.326Z,1016.23
2018-04-17T04:03:44.306Z,1016.22
2018-04-17T04:04:44.293Z,1016.24
2018-04-17T04:05:44.283Z,1016.24
2018-04-17T04:06:44.275Z,1016.22
2018-04-17T04:07:44.265Z,1016.22
2018-04-17T04:08:44.255Z,1016.26
2018-04-17T04:09:44.252Z,1016.26
2018-04-17T04:10:44.239Z,1016.26
2018-04-17T04:11:44.233Z,1016.28
2018-04-17T04:12:44.223Z,1016.32
2018-04-17T04:13:44.214Z,1016.32
2018-04-17T04:14:44.211Z,1016.32
2018-04-17T04:15:44.205Z,1016.32
2018-04-17T04:16:44.189Z,1016.37
2018-04-17T04:17:44.191Z,1016.35
2018-04-17T04:18:44.176Z,1016.39
2018-04-17T04:19:44.166Z,1016.39
2018-04-17T04:20:44.155Z,1016.41
2018-04-17T04:21:44.144Z,1016.35
2018-04-17T04:22:44.136Z,1016.38
2018-04-17T04:23:44.130Z,1016.41
2018-04-17T04:24:44.121Z,1016.38
2018-04-17T04:25:44.118Z,1016.42
2018-04-17T04:26:44.110Z,1016.38
2018-04-17T04:27:44.097Z,1016.42
2018-04-17T04:28:44.089Z,1016.47
2018-04-17T04:29:44.080Z,1016.45
2018-04-17T04:30:44.074Z,1016.49
2018-04-17T04:31:44.064Z,1016.46
2018-04-17T04:32:44.053Z,1016.53
2018-04-17T04:33:44.041Z,1016.51
2018-04-17T04:34:44.083Z,1016.53
2018-04-17T04:35:44.029Z,1016.55
2018-04-17T04:36:44.018Z,1016.60
2018-04-17T04:37:44.009Z,1016.60
2018-04-17T04:38:44.005Z,1016.62
2018-04-17T04:39:43.996Z,1016.60
2018-04-17T04:40:44.004Z,1016.63
2018-04-17T04:41:43.973Z,1016.65
2018-04-17T04:42:43.965Z,1016.62
2018-04-17T04:43:43.956Z,1016.65
2018-04-17T04:44:43.950Z,1016.62
2018-04-17T04:45:43.943Z,1016.63
2018-04-17T04:46:43.933Z,1016.63
2018-04-17T04:47:43.931Z,1016.66
2018-04-17T04:48:43.916Z,1016.68
2018-04-17T04:49:43.909Z,1016.70
2018-04-17T04:50:43.898Z,1016.69
2018-04-17T04:51:43.893Z,1016.73
2018-04-17T04:52:43.886Z,1016.71
2018-04-17T04:53:43.873Z,1016.80
2018-04-17T04:54:43.867Z,1016.82
2018-04-17T04:55:43.858Z,1016.83
2018-04-17T04:56:43.849Z,1016.84
2018-04-17T04:57:43.848Z,1016.86
2018-04-17T04:58:43.833Z,1016.82
2018-04-17T04:59:43.825Z,1016.80
2018-04-17T05:00:43.816Z,1016.87
2018-04-17T05:01:43.804Z,1016.85
2018-04-17T05:02:43.794Z,1016.86
2018-04-17T05:03:43.788Z,1016.87
2018-04-17T05:04:43.849Z,1016.90
2018-04-17T05:05:43.775Z,1016.91
2018-04-17T05:06:43.779Z,1016.93
2018-04-17T05:07:43.761Z,1016.92
2018-04-17T05:08:43.756Z,1016.91
2018-04-17T05:09:43.736Z,1016.94
2018-04-17T05:10:43.734Z,1016.99
2018-04-17T05:11:43.726Z,1016.97
2018-04-17T05:12:43.721Z,1017.00
2018-04-17T05:13:43.711Z,1017.03
2018-04-17T05:14:43.731Z,1017.05
2018-04-17T05:15:43.701Z,1017.07
2018-04-17T05:16:43.680Z,1017.10
2018-04-17T05:17:43.673Z,1017.09
2018-04-17T05:18:43.668Z,1017.13
2018-04-17T05:19:43.658Z,1017.12
2018-04-17T05:20:43.650Z,1017.13
2018-04-17T05:21:43.637Z,1017.19
2018-04-17T05:22:43.634Z,1017.18
2018-04-17T05:23:43.637Z,1017.23
2018-04-17T05:24:43.618Z,1017.21
2018-04-17T05:25:43.612Z,1017.28
2018-04-17T05:26:43.603Z,1017.31
2018-04-17T05:27:43.629Z,1017.32
2018-04-17T05:28:43.585Z,1017.34
2018-04-17T05:29:43.603Z,1017.40
2018-04-17T05:30:43.573Z,1017.45
2018-04-17T05:31:43.565Z,1017.45
2018-04-17T05:32:43.557Z,1017.50
2018-04-17T05:33:43.549Z,1017.54
2018-04-17T05:34:43.545Z,1017.56
2018-04-17T05:35:43.533Z,1017.58
2018-04-17T05:36:43.526Z,1017.60
2018-04-17T05:37:43.518Z,1017.61
2018-04-17T05:38:43.514Z,1017.62
2018-04-17T05:39:43.510Z,1017.63
2018-04-17T05:40:43.501Z,1017.65
2018-04-17T05:41:43.490Z,1017.66
2018-04-17T05:42:43.491Z,1017.70
2018-04-17T05:43:43.476Z,1017.72
2018-04-17T05:44:43.466Z,1017.75
2018-04-17T05:45:43.459Z,1017.75
2018-04-17T05:46:43.456Z,1017.81
2018-04-17T05:47:43.448Z,1017.80
2018-04-17T05:48:43.445Z,1017.82
2018-04-17T05:49:43.430Z,1017.80
2018-04-17T05:50:43.426Z,1017.85
2018-04-17T05:51:43.420Z,1017.85
2018-04-17T05:52:43.421Z,1017.83
2018-04-17T05:53:43.417Z,1017.84
2018-04-17T05:54:43.397Z,1017.84
2018-04-17T05:55:43.438Z,1017.87
2018-04-17T05:56:43.380Z,1017.89
2018-04-17T05:57:43.398Z,1017.93
2018-04-17T05:58:43.371Z,1017.98
2018-04-17T05:59:43.368Z,1017.99
2018-04-17T06:00:43.356Z,1018.09
2018-04-17T06:01:43.348Z,1018.09
2018-04-17T06:02:43.340Z,1018.10
2018-04-17T06:03:43.334Z,1018.14
2018-04-17T06:04:43.325Z,1018.08
2018-04-17T06:05:43.321Z,1018.06
2018-04-17T06:06:43.314Z,1018.04
2018-04-17T06:07:43.313Z,1018.04
2018-04-17T06:08:43.294Z,1018.06
2018-04-17T06:09:43.292Z,1018.03
2018-04-17T06:10:43.281Z,1018.05
2018-04-17T06:11:43.277Z,1018.01
2018-04-17T06:12:43.272Z,1018.05
2018-04-17T06:13:43.323Z,1018.07
2018-04-17T06:14:43.259Z,1018.09
2018-04-17T06:15:43.251Z,1018.15
2018-04-17T06:16:43.240Z,1018.12
2018-04-17T06:17:43.234Z,1018.13
2018-04-17T06:18:43.234Z,1018.18
2018-04-17T06:19:43.224Z,1018.20
2018-04-17T06:20:43.215Z,1018.15
2018-04-17T06:21:43.211Z,1018.18
2018-04-17T06:22:43.204Z,1018.20
2018-04-17T06:23:43.193Z,1018.16
2018-04-17T06:24:43.186Z,1018.12
2018-04-17T06:25:43.181Z,1018.14
2018-04-17T06:26:43.173Z,1018.12
2018-04-17T06:27:43.169Z,1018.13
2018-04-17T06:28:43.163Z,1018.15
2018-04-17T06:29:43.159Z,1018.10
2018-04-17T06:30:43.151Z,1018.15
2018-04-17T06:31:43.140Z,1018.19
2018-04-17T06:32:43.137Z,1018.19
2018-04-17T06:33:43.130Z,1018.17
2018-04-17T06:34:43.122Z,1018.21
2018-04-17T06:35:43.116Z,1018.16
2018-04-17T06:36:43.111Z,1018.18
2018-04-17T06:37:43.104Z,1018.20
2018-04-17T06:38:43.099Z,1018.19
2018-04-17T06:39:43.093Z,1018.24
2018-04-17T06:40:43.085Z,1018.21
2018-04-17T06:41:43.165Z,1018.24
2018-04-17T06:42:43.088Z,1018.23
2018-04-17T06:43:43.070Z,1018.24
2018-04-17T06:44:43.062Z,1018.24
2018-04-17T06:45:43.050Z,1018.27
2018-04-17T06:46:43.053Z,1018.26
2018-04-17T06:47:43.091Z,1018.27
2018-04-17T06:48:43.040Z,1018.25
2018-04-17T06:49:43.032Z,1018.24
2018-04-17T06:50:43.031Z,1018.29
2018-04-17T06:51:43.016Z,1018.28
2018-04-17T06:52:43.093Z,1018.26
2018-04-17T06:53:43.026Z,1018.27
2018-04-17T06:54:43.024Z,1018.25
2018-04-17T06:55:42.996Z,1018.22
2018-04-17T06:56:42.990Z,1018.25
2018-04-17T06:57:42.984Z,1018.26
2018-04-17T06:58:42.978Z,1018.28
2018-04-17T06:59:42.971Z,1018.25
2018-04-17T07:00:42.965Z,1018.27
2018-04-17T07:01:42.959Z,1018.33
2018-04-17T07:02:42.952Z,1018.30
2018-04-17T07:03:42.950Z,1018.34
2018-04-17T07:04:42.943Z,1018.39
2018-04-17T07:05:42.935Z,1018.39
2018-04-17T07:06:42.941Z,1018.36
2018-04-17T07:07:42.926Z,1018.39
2018-04-17T07:08:42.925Z,1018.38
2018-04-17T07:09:42.914Z,1018.37
2018-04-17T07:10:42.910Z,1018.38
2018-04-17T07:11:42.951Z,1018.36
2018-04-17T07:12:42.894Z,1018.38
2018-04-17T07:13:42.889Z,1018.42
2018-04-17T07:14:42.886Z,1018.41
2018-04-17T07:15:42.884Z,1018.40
2018-04-17T07:16:42.876Z,1018.39
2018-04-17T07:17:42.868Z,1018.41
2018-04-17T07:18:42.863Z,1018.45
2018-04-17T07:19:42.854Z,1018.45
2018-04-17T07:20:42.847Z,1018.46
2018-04-17T07:21:42.839Z,1018.49
2018-04-17T07:22:42.837Z,1018.50
2018-04-17T07:23:42.898Z,1018.48
2018-04-17T07:24:42.824Z,1018.51
2018-04-17T07:25:42.821Z,1018.50
2018-04-17T07:26:42.814Z,1018.50
2018-04-17T07:27:42.809Z,1018.55
2018-04-17T07:28:42.803Z,1018.53
2018-04-17T07:29:42.801Z,1018.53
2018-04-17T07:30:42.796Z,1018.54
2018-04-17T07:31:42.791Z,1018.53
2018-04-17T07:32:42.784Z,1018.56
2018-04-17T07:33:42.785Z,1018.59
2018-04-17T07:34:42.780Z,1018.56
2018-04-17T07:35:42.772Z,1018.60
2018-04-17T07:36:42.764Z,1018.63
2018-04-17T07:37:42.762Z,1018.66
2018-04-17T07:38:43.441Z,1018.67
2018-04-17T07:39:42.755Z,1018.71
2018-04-17T07:40:42.744Z,1018.74
2018-04-17T07:41:42.743Z,1018.71
2018-04-17T07:42:42.735Z,1018.76
2018-04-17T07:43:42.735Z,1018.73
2018-04-17T07:44:42.731Z,1018.74
2018-04-17T07:45:42.725Z,1018.76
2018-04-17T07:46:42.721Z,1018.78
2018-04-17T07:47:42.715Z,1018.74
2018-04-17T07:48:42.709Z,1018.79
2018-04-17T07:49:42.710Z,1018.80
2018-04-17T07:50:42.704Z,1018.81
2018-04-17T07:51:42.702Z,1018.79
2018-04-17T07:52:42.699Z,1018.82
2018-04-17T07:53:42.694Z,1018.76
2018-04-17T07:54:42.696Z,1018.75
2018-04-17T07:55:42.729Z,1018.74
2018-04-17T07:56:42.681Z,1018.76
2018-04-17T07:57:42.676Z,1018.78
2018-04-17T07:58:42.681Z,1018.77
2018-04-17T07:59:42.675Z,1018.79
2018-04-17T08:00:42.671Z,1018.78
2018-04-17T08:01:42.668Z,1018.81
2018-04-17T08:02:42.662Z,1018.77
2018-04-17T08:03:42.663Z,1018.88
2018-04-17T08:04:42.660Z,1018.87
2018-04-17T08:05:42.664Z,1018.91
2018-04-17T08:06:42.659Z,1018.96
2018-04-17T08:07:42.656Z,1018.98
2018-04-17T08:08:42.650Z,1019.02
2018-04-17T08:09:42.646Z,1019.00
2018-04-17T08:10:42.652Z,1018.99
2018-04-17T08:11:42.646Z,1019.00
2018-04-17T08:12:42.664Z,1018.99
2018-04-17T08:13:42.651Z,1018.99
2018-04-17T08:14:42.649Z,1018.99
2018-04-17T08:15:42.648Z,1019.03
2018-04-17T08:16:42.646Z,1019.04
2018-04-17T08:17:42.646Z,1019.08
2018-04-17T08:18:42.648Z,1019.13
2018-04-17T08:19:42.651Z,1019.12
2018-04-17T08:20:42.651Z,1019.15
2018-04-17T08:21:42.655Z,1019.14
2018-04-17T08:22:42.651Z,1019.17
2018-04-17T08:23:42.656Z,1019.16
2018-04-17T08:24:42.653Z,1019.15
2018-04-17T08:25:42.661Z,1019.13
2018-04-17T08:26:42.663Z,1019.08
2018-04-17T08:27:42.666Z,1019.14
2018-04-17T08:28:42.665Z,1019.16
2018-04-17T08:29:42.668Z,1019.20
2018-04-17T08:30:42.669Z,1019.19
2018-04-17T08:31:42.675Z,1019.23
2018-04-17T08:32:42.683Z,1019.19
2018-04-17T08:33:42.681Z,1019.20
2018-04-17T08:34:42.687Z,1019.19
2018-04-17T08:35:42.698Z,1019.16
2018-04-17T08:36:42.701Z,1019.21
2018-04-17T08:37:42.699Z,1019.25
2018-04-17T08:38:42.706Z,1019.25
2018-04-17T08:39:42.713Z,1019.26
2018-04-17T08:40:42.720Z,1019.20
2018-04-17T08:41:42.723Z,1019.19
2018-04-17T08:42:42.732Z,1019.21
2018-04-17T08:43:42.732Z,1019.14
2018-04-17T08:44:42.740Z,1019.21
2018-04-17T08:45:42.740Z,1019.16
2018-04-17T08:46:42.750Z,1019.16
2018-04-17T08:47:42.754Z,1019.19
2018-04-17T08:48:42.764Z,1019.16
2018-04-17T08:49:42.761Z,1019.21
2018-04-17T08:50:42.772Z,1019.13
2018-04-17T08:51:42.778Z,1019.12
2018-04-17T08:52:42.782Z,1019.15
2018-04-17T08:53:42.786Z,1019.19
2018-04-17T08:54:42.797Z,1019.21
2018-04-17T08:55:42.804Z,1019.22
2018-04-17T08:56:42.807Z,1019.22
2018-04-17T08:57:42.811Z,1019.21
2018-04-17T08:58:42.820Z,1019.23
2018-04-17T08:59:42.847Z,1019.24
2018-04-17T09:00:42.887Z,1019.30
2018-04-17T09:01:42.846Z,1019.23
2018-04-17T09:02:42.849Z,1019.26
2018-04-17T09:03:42.853Z,1019.28
2018-04-17T09:04:42.858Z,1019.28
2018-04-17T09:05:42.865Z,1019.21
2018-04-17T09:06:42.877Z,1019.22
2018-04-17T09:07:42.883Z,1019.26
2018-04-17T09:08:42.890Z,1019.22
2018-04-17T09:09:42.900Z,1019.24
2018-04-17T09:10:42.918Z,1019.25
2018-04-17T09:11:42.952Z,1019.28
2018-04-17T09:12:42.917Z,1019.27
2018-04-17T09:13:42.928Z,1019.30
2018-04-17T09:14:42.933Z,1019.24
2018-04-17T09:15:42.938Z,1019.23
2018-04-17T09:16:42.949Z,1019.23
2018-04-17T09:17:42.954Z,1019.22
2018-04-17T09:18:42.959Z,1019.21
2018-04-17T09:19:42.970Z,1019.21
2018-04-17T09:20:42.980Z,1019.27
2018-04-17T09:21:42.990Z,1019.25
2018-04-17T09:22:42.994Z,1019.21
2018-04-17T09:23:43.003Z,1019.21
2018-04-17T09:24:43.006Z,1019.18
2018-04-17T09:25:43.016Z,1019.20
2018-04-17T09:26:43.029Z,1019.21
2018-04-17T09:27:43.061Z,1019.25
2018-04-17T09:28:43.072Z,1019.21
2018-04-17T09:29:43.049Z,1019.21
2018-04-17T09:30:43.070Z,1019.23
2018-04-17T09:31:43.073Z,1019.13
2018-04-17T09:32:43.066Z,1019.13
2018-04-17T09:33:43.073Z,1019.14
2018-04-17T09:34:43.087Z,1019.11
2018-04-17T09:35:43.090Z,1019.06
2018-04-17T09:36:43.100Z,1019.09
2018-04-17T09:37:43.106Z,1019.09
2018-04-17T09:38:43.113Z,1019.10
2018-04-17T09:39:43.127Z,1019.05
2018-04-17T09:40:43.133Z,1019.05
2018-04-17T09:41:43.137Z,1019.01
2018-04-17T09:42:43.150Z,1019.02
2018-04-17T09:43:43.156Z,1019.06
2018-04-17T09:44:43.160Z,1019.01
2018-04-17T09:45:43.166Z,1019.02
2018-04-17T09:46:43.174Z,1019.07
2018-04-17T09:47:43.213Z,1019.08
2018-04-17T09:48:43.203Z,1019.03
2018-04-17T09:49:43.204Z,1019.02
2018-04-17T09:50:43.205Z,1019.04
2018-04-17T09:51:43.220Z,1019.07
2018-04-17T09:52:43.234Z,1019.10
2018-04-17T09:53:43.230Z,1019.05
2018-04-17T09:54:43.248Z,1019.02
2018-04-17T09:55:43.258Z,1019.05
2018-04-17T09:56:43.260Z,1019.08
2018-04-17T09:57:43.268Z,1019.06
2018-04-17T09:58:43.274Z,1019.08
2018-04-17T09:59:43.281Z,1019.13
2018-04-17T10:00:43.301Z,1019.15
2018-04-17T10:01:43.306Z,1019.16
2018-04-17T10:02:43.313Z,1019.11
2018-04-17T10:03:43.321Z,1019.20
2018-04-17T10:04:43.329Z,1019.20
2018-04-17T10:05:43.333Z,1019.20
2018-04-17T10:06:43.341Z,1019.29
2018-04-17T10:07:43.362Z,1019.25
2018-04-17T10:08:43.367Z,1019.23
2018-04-17T10:09:43.369Z,1019.23
2018-04-17T10:10:43.375Z,1019.16
2018-04-17T10:11:43.380Z,1019.18
2018-04-17T10:12:43.387Z,1019.25
2018-04-17T10:13:43.399Z,1019.15
2018-04-17T10:14:43.404Z,1019.21
2018-04-17T10:15:43.415Z,1019.16
2018-04-17T10:16:43.422Z,1019.13
2018-04-17T10:17:43.430Z,1019.08
2018-04-17T10:18:43.435Z,1019.13
2018-04-17T10:19:43.443Z,1019.15
2018-04-17T10:20:43.450Z,1019.16
2018-04-17T10:21:43.462Z,1019.17
2018-04-17T10:22:43.476Z,1019.18
2018-04-17T10:23:43.479Z,1019.16
2018-04-17T10:24:43.484Z,1019.18
2018-04-17T10:25:43.493Z,1019.23
2018-04-17T10:26:43.505Z,1019.22
2018-04-17T10:27:43.515Z,1019.15
2018-04-17T10:28:43.519Z,1019.10
2018-04-17T10:29:43.526Z,1019.18
2018-04-17T10:30:43.539Z,1019.14
2018-04-17T10:31:43.542Z,1019.15
2018-04-17T10:32:44.490Z,1019.18
2018-04-17T10:33:43.567Z,1019.16
2018-04-17T10:34:43.568Z,1019.17
2018-04-17T10:35:43.578Z,1019.15
2018-04-17T10:36:43.583Z,1019.16
2018-04-17T10:37:43.593Z,1019.10
2018-04-17T10:38:43.595Z,1019.11
2018-04-17T10:39:43.661Z,1019.08
2018-04-17T10:40:43.613Z,1019.11
2018-04-17T10:41:43.623Z,1019.17
2018-04-17T10:42:43.634Z,1019.08
2018-04-17T10:43:43.641Z,1019.15
2018-04-17T10:44:43.642Z,1019.09
2018-04-17T10:45:43.655Z,1019.06
2018-04-17T10:46:43.663Z,1019.10
2018-04-17T10:47:43.674Z,1019.10
2018-04-17T10:48:43.681Z,1019.12
2018-04-17T10:49:43.686Z,1019.05
2018-04-17T10:50:43.699Z,1019.04
2018-04-17T10:51:43.701Z,1019.01
2018-04-17T10:52:43.712Z,1019.00
2018-04-17T10:53:43.716Z,1018.91
2018-04-17T10:54:43.726Z,1018.90
2018-04-17T10:55:43.735Z,1018.96
2018-04-17T10:56:43.739Z,1018.89
2018-04-17T10:57:43.748Z,1019.09
2018-04-17T10:58:43.752Z,1019.00
2018-04-17T10:59:43.780Z,1019.05
2018-04-17T11:00:43.771Z,1018.98
2018-04-17T11:01:43.777Z,1018.99
2018-04-17T11:02:43.787Z,1018.92
2018-04-17T11:03:43.799Z,1018.89
2018-04-17T11:04:43.800Z,1018.92
2018-04-17T11:05:43.826Z,1018.87
2018-04-17T11:06:43.813Z,1018.84
2018-04-17T11:07:43.833Z,1018.87
2018-04-17T11:08:43.832Z,1018.88
2018-04-17T11:09:43.845Z,1018.87
2018-04-17T11:10:43.868Z,1018.82
2018-04-17T11:11:43.867Z,1018.92
2018-04-17T11:12:43.859Z,1018.93
2018-04-17T11:13:43.872Z,1018.93
2018-04-17T11:14:43.883Z,1018.94
2018-04-17T11:15:43.891Z,1018.94
2018-04-17T11:16:43.896Z,1019.01
2018-04-17T11:17:43.903Z,1018.91
2018-04-17T11:18:43.909Z,1018.93
2018-04-17T11:19:43.919Z,1018.86
2018-04-17T11:20:43.927Z,1018.86
2018-04-17T11:21:43.940Z,1018.91
2018-04-17T11:22:43.951Z,1018.86
2018-04-17T11:23:43.959Z,1018.85
2018-04-17T11:24:43.967Z,1018.87
2018-04-17T11:25:43.973Z,1018.86
2018-04-17T11:26:43.982Z,1018.86
2018-04-17T11:27:43.989Z,1018.83
2018-04-17T11:28:43.998Z,1018.78
2018-04-17T11:29:44.006Z,1018.80
2018-04-17T11:30:44.017Z,1018.80
2018-04-17T11:31:44.020Z,1018.79
2018-04-17T11:32:44.037Z,1018.80
2018-04-17T11:33:44.040Z,1018.80
2018-04-17T11:34:44.073Z,1018.75
2018-04-17T11:35:44.062Z,1018.78
2018-04-17T11:36:44.066Z,1018.79
2018-04-17T11:37:44.080Z,1018.88
2018-04-17T11:38:44.088Z,1018.77
2018-04-17T11:39:44.094Z,1018.88
2018-04-17T11:40:44.107Z,1018.88
2018-04-17T11:41:44.117Z,1018.83
2018-04-17T11:42:44.125Z,1018.83
2018-04-17T11:43:44.138Z,1018.85
2018-04-17T11:44:44.143Z,1018.85
2018-04-17T11:45:44.154Z,1018.83
2018-04-17T11:46:44.162Z,1018.87
2018-04-17T11:47:44.174Z,1018.84
2018-04-17T11:48:44.234Z,1018.82
2018-04-17T11:49:44.193Z,1018.80
2018-04-17T11:50:44.198Z,1018.81
2018-04-17T11:51:44.207Z,1018.77
2018-04-17T11:52:44.215Z,1018.87
2018-04-17T11:53:44.223Z,1018.82
2018-04-17T11:54:44.238Z,1018.80
2018-04-17T11:55:44.245Z,1018.82
2018-04-17T11:56:44.255Z,1018.78
2018-04-17T11:57:44.264Z,1018.76
2018-04-17T11:58:44.267Z,1018.79
2018-04-17T11:59:44.285Z,1018.84
2018-04-17T12:00:44.290Z,1018.83
2018-04-17T12:01:44.308Z,1018.84
2018-04-17T12:02:44.304Z,1018.83
2018-04-17T12:03:44.317Z,1018.83
2018-04-17T12:04:44.321Z,1018.83
2018-04-17T12:05:44.332Z,1018.89